Bitte eine E-Mail-Adresse für das Benutzerkonto eingeben. Ein Bestätigungscode wird dann an diese verschickt. Sobald der Code vorliegt, kann ein neues Passwort für das Benutzerkonto festgelegt werden.

 

 

WebCam

  
Kamera Halle
Kamera Vorplatz
Wetter EDDS

METAR

EDDS 171250Z 09003KT 050V150 CAVOK 23/09 Q1021 NOSIG =


TAF

EDDS 171100Z 1712/1812 VRB02KT CAVOK =


SR/SS

05:45 / 16:27 UTC
(EDSO 17-10-2017)

Austräger der GPS Triangle WM 2017